Time;durP1;ratioP1;P1;durP2;ratioP2;P2;SDS_P1;SDS_P2;PMS_P1;PMS_P2;Temp;Humidity;BMP_temperature;BMP_pressure;BME280_temperature;BME280_humidity;BME280_pressure;Samples;Min_cycle;Max_cycle;Signal;HPM_P1;HPM_P2
2020/12/22 18:54:22;;;;;;;;;;;;;;;14.84;74.17;99656.38;5177013;23;19941;-82
2020/12/22 18:56:47;;;;;;;;;;;;;;;14.83;74.45;99655.50;4959806;28;19926;-83
2020/12/22 18:59:13;;;;;;;;;;;;;;;14.83;74.24;99652.00;4961435;28;20217;-84
2020/12/22 19:01:38;;;;;;;;;;;;;;;14.79;74.69;99654.00;4989578;28;20092;-83
2020/12/22 19:04:04;;;;;;;;;;;;;;;14.80;74.79;99644.19;4995995;28;20003;-80
2020/12/22 19:06:29;;;;;;;;;;;;;;;14.81;74.12;99651.25;4998041;28;19949;-83
2020/12/22 19:08:54;;;;;;;;;;;;;;;14.83;74.20;99650.16;4996196;28;19933;-80
2020/12/22 19:11:22;;;;;;;;;;;;;;;14.84;73.96;99645.72;4995426;28;19922;-81
2020/12/22 19:13:48;;;;;;;;;;;;;;;14.85;73.97;99652.75;4997118;28;19930;-82
2020/12/22 19:16:13;;;;;;;;;;;;;;;14.84;74.08;99661.72;4996986;28;19922;-82
2020/12/22 19:18:41;;;;;;;;;;;;;;;14.85;73.86;99663.41;4999296;28;19953;-83
2020/12/22 19:21:07;;;;;;;;;;;;;;;14.90;73.73;99650.63;4998754;28;20302;-84
2020/12/22 19:23:33;;;;;;;;;;;;;;;14.93;73.87;99655.78;4996095;28;20013;-82
2020/12/22 19:26:02;;;;;;;;;;;;;;;14.93;73.98;99647.78;4995577;28;19929;-83
2020/12/22 19:28:28;;;;;;;;;;;;;;;14.90;73.64;99645.31;4994797;28;19929;-81
2020/12/22 19:30:53;;;;;;;;;;;;;;;14.96;73.69;99638.72;4995663;28;19926;-83
2020/12/22 19:33:19;;;;;;;;;;;;;;;14.99;73.61;99644.72;4996538;28;19981;-80
2020/12/22 19:35:48;;;;;;;;;;;;;;;15.03;73.27;99643.59;4995089;28;19921;-81
2020/12/22 19:38:14;;;;;;;;;;;;;;;15.08;73.32;99643.31;4997686;28;19922;-81
2020/12/22 19:40:41;;;;;;;;;;;;;;;15.12;73.12;99646.63;4999396;28;19979;-83
2020/12/22 19:43:10;;;;;;;;;;;;;;;15.11;73.35;99647.56;5000073;28;19943;-80
2020/12/22 19:45:35;;;;;;;;;;;;;;;15.17;72.81;99645.38;4997029;28;19933;-82
2020/12/22 19:48:01;;;;;;;;;;;;;;;15.22;72.53;99647.72;4997723;28;19922;-84
2020/12/22 19:50:26;;;;;;;;;;;;;;;15.23;72.57;99647.63;4999237;28;19933;-81
2020/12/22 19:52:52;;;;;;;;;;;;;;;15.25;72.46;99650.22;4999650;28;20440;-82
2020/12/22 19:55:21;;;;;;;;;;;;;;;15.28;72.53;99655.34;5016794;28;19922;-80
2020/12/22 19:57:46;;;;;;;;;;;;;;;15.25;72.45;99647.53;4998694;28;19925;-83
2020/12/22 20:00:11;;;;;;;;;;;;;;;15.25;72.58;99655.53;4997703;28;19933;-83
2020/12/22 20:02:37;;;;;;;;;;;;;;;15.20;72.40;99650.50;4998053;28;19937;-81
2020/12/22 20:05:02;;;;;;;;;;;;;;;15.20;72.39;99646.97;4995000;28;20445;-84
2020/12/22 20:07:28;;;;;;;;;;;;;;;15.21;72.42;99644.22;4997835;28;20028;-79
2020/12/22 20:09:53;;;;;;;;;;;;;;;15.23;72.36;99644.13;4999334;28;19933;-79
2020/12/22 20:14:44;;;;;;;;;;;;;;;15.19;72.53;99646.13;4970557;28;19926;-81
2020/12/22 20:17:10;;;;;;;;;;;;;;;15.18;72.39;99649.75;4970107;28;19934;-82
2020/12/22 20:19:35;;;;;;;;;;;;;;;15.20;72.61;99655.00;4969612;28;20317;-83
2020/12/22 20:22:00;;;;;;;;;;;;;;;15.28;72.29;99657.16;4968528;28;19926;-85
2020/12/22 20:24:26;;;;;;;;;;;;;;;15.30;72.41;99650.78;4969943;28;20004;-80
2020/12/22 20:27:28;;;;;;;;;;;;;;;15.28;72.33;99639.34;4970596;28;20217;-83
2020/12/22 20:29:53;;;;;;;;;;;;;;;15.38;72.34;99642.25;4980399;28;20441;-82
2020/12/22 20:32:18;;;;;;;;;;;;;;;15.39;72.18;99636.81;4970132;28;19926;-82
2020/12/22 20:34:44;;;;;;;;;;;;;;;15.35;72.23;99635.31;4969950;28;19956;-81
2020/12/22 20:37:10;;;;;;;;;;;;;;;15.36;72.50;99633.50;4973594;28;20324;-81
2020/12/22 20:39:35;;;;;;;;;;;;;;;15.35;72.23;99638.00;4970520;28;19948;-81
2020/12/22 20:42:00;;;;;;;;;;;;;;;15.32;72.29;99630.19;4966593;28;19922;-82
2020/12/22 20:47:33;;;;;;;;;;;;;;;15.31;72.04;99639.13;4945208;28;20173;-83
2020/12/22 20:49:58;;;;;;;;;;;;;;;15.36;72.12;99642.34;4969886;28;20172;-82
2020/12/22 20:52:24;;;;;;;;;;;;;;;15.42;71.72;99646.44;4967958;28;19941;-82
2020/12/22 20:54:49;;;;;;;;;;;;;;;15.40;71.79;99649.22;4959425;28;19937;-81
2020/12/22 20:57:15;;;;;;;;;;;;;;;15.34;72.09;99648.78;4943663;28;19938;-77
2020/12/22 20:59:40;;;;;;;;;;;;;;;15.33;71.96;99652.38;4969950;28;19969;-81
2020/12/22 21:02:07;;;;;;;;;;;;;;;15.32;72.07;99642.69;4970483;28;20433;-80
2020/12/22 21:04:32;;;;;;;;;;;;;;;15.38;71.87;99640.47;4968784;28;20210;-81
2020/12/22 21:06:58;;;;;;;;;;;;;;;15.40;71.91;99641.22;4970040;28;19922;-82
2020/12/22 21:09:24;;;;;;;;;;;;;;;15.36;72.29;99642.34;4966748;28;19933;-83
2020/12/22 21:11:49;;;;;;;;;;;;;;;15.33;72.12;99642.56;4968944;28;20221;-81
2020/12/22 21:14:15;;;;;;;;;;;;;;;15.38;72.17;99648.47;4969956;28;19976;-81
2020/12/22 21:16:48;;;;;;;;;;;;;;;15.39;71.79;99647.50;4968990;28;20050;-81
2020/12/22 21:19:13;;;;;;;;;;;;;;;15.38;72.19;99650.25;4970312;28;19918;-77
2020/12/22 21:21:38;;;;;;;;;;;;;;;15.46;72.09;99642.63;4967000;28;19993;-82
2020/12/22 21:24:06;;;;;;;;;;;;;;;15.43;71.97;99641.00;4968770;28;19918;-79
2020/12/22 21:26:34;;;;;;;;;;;;;;;15.41;72.52;99642.06;4966829;28;19922;-80
2020/12/22 21:29:00;;;;;;;;;;;;;;;15.44;72.39;99640.06;4967847;28;19929;-80
2020/12/22 21:31:26;;;;;;;;;;;;;;;15.51;72.04;99628.97;4968514;28;19962;-79
2020/12/22 21:33:52;;;;;;;;;;;;;;;15.48;71.84;99630.03;4979489;28;19969;-79
2020/12/22 21:36:19;;;;;;;;;;;;;;;15.47;71.82;99627.47;4971685;28;19957;-78
2020/12/22 21:38:45;;;;;;;;;;;;;;;15.37;72.28;99617.38;4965373;28;20282;-82
2020/12/22 21:41:11;;;;;;;;;;;;;;;15.34;72.24;99617.59;4972651;28;20183;-81
2020/12/22 21:43:37;;;;;;;;;;;;;;;15.38;71.92;99616.44;4971956;28;19922;-82
2020/12/22 21:46:03;;;;;;;;;;;;;;;15.40;72.23;99619.84;4964327;28;19926;-82
2020/12/22 21:48:29;;;;;;;;;;;;;;;15.42;72.19;99615.25;4969871;28;19922;-82
2020/12/22 21:50:54;;;;;;;;;;;;;;;15.56;71.70;99616.19;4970091;28;19919;-80
2020/12/22 21:53:20;;;;;;;;;;;;;;;15.44;71.93;99628.50;4967942;28;19985;-81
2020/12/22 21:55:53;;;;;;;;;;;;;;;15.49;72.06;99630.88;4967582;28;19992;-82
2020/12/22 21:58:20;;;;;;;;;;;;;;;15.55;71.99;99633.16;4957003;28;19934;-82
2020/12/22 22:01:00;;;;;;;;;;;;;;;15.53;71.87;99621.72;4959744;28;19922;-81
2020/12/22 22:03:25;;;;;;;;;;;;;;;15.42;72.07;99628.63;4957161;28;19941;-81
2020/12/22 22:05:52;;;;;;;;;;;;;;;15.35;71.87;99630.00;4955625;28;19926;-80
2020/12/22 22:08:20;;;;;;;;;;;;;;;15.39;72.14;99635.97;4956821;29;19918;-82
2020/12/22 22:10:51;;;;;;;;;;;;;;;15.36;71.68;99629.00;4954834;29;19923;-82
2020/12/22 22:13:18;;;;;;;;;;;;;;;15.39;71.95;99636.81;4958130;28;20279;-81
2020/12/22 22:15:44;;;;;;;;;;;;;;;15.38;71.82;99639.59;4955744;29;19922;-81
2020/12/22 22:18:09;;;;;;;;;;;;;;;15.37;72.26;99638.75;4959180;29;20407;-82
2020/12/22 22:20:35;;;;;;;;;;;;;;;15.39;72.19;99630.63;4958021;29;19930;-83
2020/12/22 22:23:00;;;;;;;;;;;;;;;15.40;72.02;99622.53;4955824;29;19918;-80
2020/12/22 22:25:35;;;;;;;;;;;;;;;15.40;72.15;99625.19;4990251;28;19926;-82
2020/12/22 22:28:01;;;;;;;;;;;;;;;15.49;71.68;99621.06;4974841;28;20297;-78
2020/12/22 22:30:26;;;;;;;;;;;;;;;15.43;72.00;99626.81;4976371;28;19922;-81
2020/12/22 22:32:52;;;;;;;;;;;;;;;15.42;72.04;99625.94;4993334;28;19922;-82
2020/12/22 22:35:17;;;;;;;;;;;;;;;15.54;70.91;99618.97;4978185;28;20310;-82
2020/12/22 22:37:46;;;;;;;;;;;;;;;15.51;71.64;99629.84;4973912;28;20275;-82
